Flight Track Log - Related Links

Times and Time Zones

All times are in EDT time to prevent confusion due to time zone crossing. See the JIA2277 flight status page for this flight to view local times or setup timezone preferences in your user account.

Time Position Orientation Groundspeed Altitude Reporting Facility
EDT Latitude Longitude Course Direction KTS MPH feet Rate Location/Type
Wed 12:56:49 PM 35.1886 -80.9358 192° South 171 197 1,500  Level Atlanta Center
Wed 12:57:32 PM 35.1511 -80.9319 175° South 183 211 2,900 2,016 Climbing Atlanta Center
Wed 12:58:54 PM 35.0631 -80.9150 171° South 268 308 5,700 2,282 Climbing Atlanta Center
Wed 12:59:00 PM 34.8950 -80.9837 224° Southwest  Level FlightAware Approximate
Wed 12:59:54 PM 34.9922 -80.9253 187° South 271 312 8,300  Level Atlanta Center
Wed 01:00:00 PM 34.7950 -81.0289 190° South  Level FlightAware Approximate
Wed 01:01:00 PM 34.6985 -81.0670 192° South  Level FlightAware Approximate
Wed 01:01:29 PM 34.8836 -80.9717 199° South 275 316 11,600  Level Jacksonville Center
Wed 01:02:00 PM 34.5890 -81.0944 192° South  Level FlightAware Approximate
Wed 01:02:29 PM 34.8069 -81.0014 198° South 291 335 12,600  Level Jacksonville Center
Wed 01:03:29 PM 34.7178 -81.0386 199° South 323 372 13,600 1,333 Climbing Jacksonville Center
Wed 01:05:29 PM 34.5289 -81.1108 197° South 350 403 16,600 1,400 Climbing Jacksonville Center
Wed 01:06:29 PM 34.4250 -81.1356 191° South 355 409 17,800 1,150 Climbing Jacksonville Center
Wed 01:07:29 PM 34.3253 -81.1603 192° South 355 409 18,900 1,050 Climbing Jacksonville Center
Wed 01:08:29 PM 34.2275 -81.1772 188° South 355 409 19,900 900 Climbing Jacksonville Center
Wed 01:09:29 PM 34.1233 -81.2019 191° South 360 414 20,700 850 Climbing Jacksonville Center
Wed 01:10:29 PM 34.0236 -81.2264 191° South 371 427 21,600 800 Climbing Jacksonville Center
Wed 01:11:29 PM 33.9175 -81.2508 191° South 382 440 22,300 700 Climbing Jacksonville Center
Wed 01:12:29 PM 33.8114 -81.2753 191° South 387 445 23,000 550 Climbing Jacksonville Center
Wed 01:13:29 PM 33.7117 -81.2997 192° South 402 463 23,400 450 Climbing Jacksonville Center
Wed 01:14:29 PM 33.6014 -81.3267 192° South 408 470 23,900 550 Climbing Jacksonville Center
Wed 01:15:29 PM 33.4828 -81.3611 194° South 408 470 24,500 550 Climbing Jacksonville Center
Wed 01:16:29 PM 33.3747 -81.4078 200° South 408 470 25,000 500 Climbing Jacksonville Center
Wed 01:17:29 PM 33.2708 -81.4492 198° South 408 470 25,500 450 Climbing Jacksonville Center
Wed 01:18:29 PM 33.1775 -81.4903 200° South 403 464 25,900 450 Climbing Jacksonville Center
Wed 01:19:29 PM 33.0714 -81.5342 199° South 403 464 26,400 500 Climbing Jacksonville Center
Wed 01:20:29 PM 32.9633 -81.5753 198° South 403 464 26,900 500 Climbing Jacksonville Center
Wed 01:21:29 PM 32.8575 -81.6214 200° South 403 464 27,400 500 Climbing Jacksonville Center
Wed 01:22:29 PM 32.7533 -81.6625 198° South 403 464 27,900 550 Climbing Jacksonville Center
Wed 01:23:29 PM 32.6517 -81.7058 200° South 395 455 28,500 600 Climbing Jacksonville Center
Wed 01:24:29 PM 32.5392 -81.7517 199° South 390 449 29,100 500 Climbing Jacksonville Center
Wed 01:25:29 PM 32.4372 -81.7922 199° South 390 449 29,500 450 Climbing Jacksonville Center
Wed 01:26:29 PM 32.3353 -81.8353 200° South 390 449 30,000 250 Climbing Jacksonville Center
Wed 01:27:29 PM 32.2397 -81.8708 197° South 385 443 30,000  Level Jacksonville Center
Wed 01:28:29 PM 32.1253 -81.9186 199° South 390 449 30,000  Level Jacksonville Center
Wed 01:29:29 PM 32.0150 -81.9639 199° South 405 466 30,000  Level Jacksonville Center
Wed 01:30:29 PM 31.9067 -82.0067 199° South 412 474 30,000  Level Jacksonville Center
Wed 01:31:29 PM 31.8067 -82.0442 198° South 407 468 30,000 -200 Level Jacksonville Center
Wed 01:32:29 PM 31.6858 -82.0917 198° South 416 479 29,600 -700 Descending Jacksonville Center
Wed 01:33:29 PM 31.5797 -82.1392 201° Southwest 421 484 28,600 -950 Descending Jacksonville Center
Wed 01:34:29 PM 31.4672 -82.1839 199° South 421 484 27,700 -950 Descending Jacksonville Center
Wed 01:35:29 PM 31.3692 -82.2211 198° South 428 493 26,700 -1,000 Descending Jacksonville Center
Wed 01:36:29 PM 31.2608 -82.2631 198° South 428 493 25,700 -1,000 Descending Jacksonville Center
Wed 01:37:29 PM 31.1506 -82.3028 197° South 423 487 24,700 -1,050 Descending Jacksonville Center
Wed 01:38:29 PM 31.0442 -82.3444 199° South 423 487 23,600 -1,000 Descending Jacksonville Center
Wed 01:39:29 PM 30.9378 -82.3864 199° South 417 480 22,700 -950 Descending Jacksonville Center
Wed 01:40:29 PM 30.8336 -82.4281 199° South 411 473 21,700 -1,000 Descending Jacksonville Center
Wed 01:41:29 PM 30.7272 -82.4647 197° South 406 467 20,700 -1,000 Descending Jacksonville Center
Wed 01:42:29 PM 30.6272 -82.5064 200° South 401 461 19,700 -1,000 Descending Jacksonville Center
Wed 01:43:29 PM 30.5269 -82.5453 198° South 391 450 18,700 -900 Descending Jacksonville Center
Wed 01:44:29 PM 30.4206 -82.5603 187° South 381 438 17,900 -900 Descending Jacksonville Center
Wed 01:45:29 PM 30.3206 -82.5844 192° South 376 433 16,900 -950 Descending Jacksonville Center
Wed 01:46:29 PM 30.2244 -82.6089 192° South 370 426 16,000 -750 Descending Jacksonville Center
Wed 01:47:29 PM 30.1306 -82.6092 180° South 353 406 15,400 -1,500 Descending Jacksonville Center
Wed 01:48:29 PM 30.0489 -82.5733 159° South 317 365 13,000 -2,700 Descending Jacksonville Center
Wed 01:49:29 PM 29.9694 -82.5258 153° Southeast 308 354 10,000 -2,050 Descending Jacksonville Center
Wed 01:50:29 PM 29.9025 -82.4756 147° Southeast 295 339 8,900 -1,350 Descending Jacksonville Center
Wed 01:51:29 PM 29.8356 -82.4281 148° Southeast 289 333 7,300 -1,650 Descending Jacksonville Center
Wed 01:52:29 PM 29.7853 -82.3661 133° Southeast 264 304 5,600 -2,000 Descending Jacksonville Center
Wed 01:53:29 PM 29.7683 -82.2967 106° East 245 282 3,300 -1,300 Descending Jacksonville Center
Wed 01:54:29 PM 29.7492 -82.2156 105° East 233 268 3,000 -600 Descending Jacksonville Center
Wed 01:55:39 PM 29.7217 -82.1631 121° Southeast 176 203 2,000 -595 Descending Jacksonville Center
Wed 01:56:40 PM 29.6883 -82.1706 191° South 136 157 1,700 -545 Descending Jacksonville Center
Wed 01:57:29 PM 29.6781 -82.2089 253° West 86 99 1,000 -443 Descending Jacksonville Center
Wed 01:58:42 PM 29.6781 -82.2400 270° West 166 191 800 -62 Descending Jacksonville Center
Wed 02:00:43 PM 29.6781 -82.2400 180° South 166 191 800  Level Jacksonville Center

Login

Don't have an account? Register now (free) for customized features, flight alerts, and more!